Grampian Pride — GDDK — position and weather

sailwx.info

Track history (hours):
 
Tides and Currents Weather Stations Pressure Air Temp Water Temp Dewpoint Dewpoint Depression Visibility Wind Speed Wind Dir Waves Ship Positions

Grampian Pride

Last reported at 2014-Oct-04 14:18 UTC. Time now 2014-Oct-22 06:30 UTC.
Position N 57°09' W 002°01'.
Warning: this ship's position is 17 days out of date.

Length 42 m; draft 4.8 m.

Type: SAR. MMSI: 232843000.

Date/timePositionNaut miles runAvg speedWind from/ knotsBaromVisibWave heightAir tempDewpointWater temp
2014-Oct-04 14:18N 57°09' W 002°01'2 2.5
2014-Oct-04 13:33N 57°09' W 002°05'0 0.0
2014-Oct-04 12:33N 57°09' W 002°05'0 0.0
2014-Oct-04 11:33N 57°09' W 002°05'0 0.0
2014-Oct-04 10:33N 57°09' W 002°05'0 0.0
2014-Oct-04 09:33N 57°09' W 002°05'0 0.0
2014-Oct-04 08:33N 57°09' W 002°05'0 0.0
2014-Oct-04 07:33N 57°09' W 002°05'0 0.0
2014-Oct-04 06:33N 57°09' W 002°05'0 0.0
2014-Oct-04 05:33N 57°09' W 002°05'0 0.0
2014-Oct-04 04:33N 57°09' W 002°05'0 0.0
2014-Oct-04 03:33N 57°09' W 002°05'0 0.0
2014-Oct-04 02:33N 57°09' W 002°05'0 0.0
2014-Oct-04 01:33N 57°09' W 002°05'0 0.0
2014-Oct-04 00:33N 57°09' W 002°05'0 0.0
2014-Oct-03 23:33N 57°09' W 002°05'0 0.0
2014-Oct-03 22:33N 57°09' W 002°05'0 0.0
2014-Oct-03 21:33N 57°09' W 002°05'0 0.0
2014-Oct-03 20:33N 57°09' W 002°05'0 0.0
2014-Oct-03 19:33N 57°09' W 002°05'12 5.8
2014-Oct-03 17:33N 57°17' W 001°50'8 7.6
2014-Oct-03 16:33N 57°23' W 001°42'7 7.3
2014-Oct-03 15:33N 57°30' W 001°35'7 7.3
2014-Oct-03 14:33N 57°37' W 001°38'7 7.4
2014-Oct-03 13:33N 57°44' W 001°41'8 7.6
2014-Oct-03 12:33N 57°51' W 001°44'  
Track history (hours):
 
Tides and Currents Weather Stations Pressure Air Temp Water Temp Dewpoint Dewpoint Depression Visibility Wind Speed Wind Dir Waves Ship Positions

Grampian Pride

Last reported at 2014-Oct-04 14:18 UTC. Time now 2014-Oct-22 06:30 UTC.
Position N 57°09' W 002°01'.
Warning: this ship's position is 17 days out of date.

Length 42 m; draft 4.8 m.

Type: SAR. MMSI: 232843000.

Date/timePositionNaut miles runAvg speedWind from/ knotsBaromVisibWave heightAir tempDewpointWater temp
2014-Oct-04 14:18N 57°09' W 002°01'2 2.5
2014-Oct-04 13:33N 57°09' W 002°05'0 0.0
2014-Oct-04 12:33N 57°09' W 002°05'0 0.0
2014-Oct-04 11:33N 57°09' W 002°05'0 0.0
2014-Oct-04 10:33N 57°09' W 002°05'0 0.0
2014-Oct-04 09:33N 57°09' W 002°05'0 0.0
2014-Oct-04 08:33N 57°09' W 002°05'0 0.0
2014-Oct-04 07:33N 57°09' W 002°05'0 0.0
2014-Oct-04 06:33N 57°09' W 002°05'0 0.0
2014-Oct-04 05:33N 57°09' W 002°05'0 0.0
2014-Oct-04 04:33N 57°09' W 002°05'0 0.0
2014-Oct-04 03:33N 57°09' W 002°05'0 0.0
2014-Oct-04 02:33N 57°09' W 002°05'0 0.0
2014-Oct-04 01:33N 57°09' W 002°05'0 0.0
2014-Oct-04 00:33N 57°09' W 002°05'0 0.0
2014-Oct-03 23:33N 57°09' W 002°05'0 0.0
2014-Oct-03 22:33N 57°09' W 002°05'0 0.0
2014-Oct-03 21:33N 57°09' W 002°05'0 0.0
2014-Oct-03 20:33N 57°09' W 002°05'0 0.0
2014-Oct-03 19:33N 57°09' W 002°05'12 5.8
2014-Oct-03 17:33N 57°17' W 001°50'8 7.6
2014-Oct-03 16:33N 57°23' W 001°42'7 7.3
2014-Oct-03 15:33N 57°30' W 001°35'7 7.3
2014-Oct-03 14:33N 57°37' W 001°38'7 7.4
2014-Oct-03 13:33N 57°44' W 001°41'8 7.6
2014-Oct-03 12:33N 57°51' W 001°44'  

Dump ship's entire track history